createdAt,value
2023-03-14T09:30:27.016Z,47.29
2023-03-14T09:31:30.451Z,47.32
2023-03-14T09:32:34.476Z,47.78
2023-03-14T09:33:37.067Z,47.32
2023-03-14T09:34:38.883Z,47.31
2023-03-14T09:35:40.579Z,47.70
2023-03-14T09:36:42.485Z,47.54
2023-03-14T09:37:44.723Z,48.01
2023-03-14T09:38:46.534Z,47.91
2023-03-14T09:39:48.181Z,47.80
2023-03-14T09:40:50.763Z,47.91
2023-03-14T09:41:55.465Z,48.23
2023-03-14T09:42:57.274Z,48.51
2023-03-14T09:44:05.300Z,48.11
2023-03-14T09:45:18.463Z,47.86
2023-03-14T09:46:23.034Z,47.51
2023-03-14T09:47:26.088Z,47.55
2023-03-14T09:48:31.871Z,48.10
2023-03-14T09:49:37.846Z,48.24
2023-03-14T09:50:42.983Z,48.26
2023-03-14T09:51:48.345Z,48.34
2023-03-14T09:52:56.749Z,48.64
2023-03-14T09:53:58.412Z,48.18
2023-03-14T09:55:16.220Z,48.16
2023-03-14T09:56:30.727Z,47.92
2023-03-14T09:57:35.366Z,48.06
2023-03-14T09:58:41.972Z,47.66
2023-03-14T09:59:47.851Z,47.58
2023-03-14T10:00:51.300Z,47.80
2023-03-14T10:01:53.402Z,47.71
2023-03-14T10:02:58.033Z,47.54
2023-03-14T10:04:11.329Z,47.70
2023-03-14T10:05:23.095Z,47.30
2023-03-14T10:06:30.887Z,47.18
2023-03-14T10:07:33.515Z,47.83
2023-03-14T10:08:35.374Z,47.33
2023-03-14T10:09:37.842Z,47.31
2023-03-14T10:10:39.853Z,47.31
2023-03-14T10:11:41.635Z,47.57
2023-03-14T10:12:46.028Z,47.54
2023-03-14T10:14:09.934Z,47.02
2023-03-14T10:15:18.816Z,46.97
2023-03-14T10:16:30.247Z,46.08
2023-03-14T10:17:39.795Z,46.86
2023-03-14T10:18:46.447Z,46.90
2023-03-14T10:20:00.897Z,47.04
2023-03-14T10:21:26.810Z,47.57
2023-03-14T10:22:34.176Z,47.33
2023-03-14T10:23:36.547Z,47.45
2023-03-14T10:24:47.295Z,47.85
2023-03-14T10:26:06.098Z,47.82
2023-03-14T10:27:22.528Z,47.69
2023-03-14T10:28:32.009Z,47.64
2023-03-14T10:29:35.629Z,47.52
2023-03-14T10:30:45.015Z,48.27
2023-03-14T10:32:02.738Z,48.22
2023-03-14T10:33:13.372Z,48.02
2023-03-14T10:34:24.609Z,47.90
2023-03-14T10:35:26.485Z,48.18
2023-03-14T10:36:37.061Z,48.05
2023-03-14T10:37:52.752Z,47.92
2023-03-14T10:39:17.688Z,47.85
2023-03-14T10:40:23.775Z,48.28
2023-03-14T10:41:30.395Z,47.73
2023-03-14T10:42:35.701Z,47.51
2023-03-14T10:43:39.976Z,47.50
2023-03-14T10:44:42.742Z,47.16
2023-03-14T10:45:46.749Z,46.86
2023-03-14T10:47:01.386Z,47.26
2023-03-14T10:48:15.336Z,47.09
2023-03-14T10:49:32.915Z,47.32
2023-03-14T10:50:34.665Z,47.38
2023-03-14T10:51:36.185Z,47.42
2023-03-14T10:53:01.355Z,46.61
2023-03-14T10:54:20.168Z,46.84
2023-03-14T10:55:22.587Z,46.63
2023-03-14T10:56:28.954Z,46.73
2023-03-14T10:57:30.709Z,47.46
2023-03-14T10:58:36.502Z,47.86
2023-03-14T10:59:42.423Z,46.50
2023-03-14T11:00:45.109Z,46.25
2023-03-14T11:02:05.698Z,45.97
2023-03-14T11:03:15.441Z,46.13
2023-03-14T11:04:49.518Z,45.12
2023-03-14T11:06:03.829Z,45.86
2023-03-14T11:07:25.319Z,46.39
2023-03-14T11:08:45.258Z,46.81
2023-03-14T11:09:59.019Z,46.61
2023-03-14T11:11:29.753Z,46.46
2023-03-14T11:12:42.996Z,46.64
2023-03-14T11:14:11.857Z,45.52
2023-03-14T11:15:24.316Z,45.43
2023-03-14T11:16:32.795Z,44.67
2023-03-14T11:17:51.056Z,45.02
2023-03-14T11:19:40.574Z,45.44
2023-03-14T11:20:57.108Z,45.28
2023-03-14T11:22:07.204Z,45.26
2023-03-14T11:23:17.214Z,44.16
2023-03-14T11:24:18.853Z,43.15
2023-03-14T11:25:32.345Z,42.90
2023-03-14T11:26:59.273Z,43.00
2023-03-14T11:28:09.760Z,42.84
2023-03-14T11:29:46.621Z,43.16
2023-03-14T11:31:00.580Z,43.68
2023-03-14T11:32:11.346Z,44.07
2023-03-14T11:33:29.710Z,43.92
2023-03-14T11:34:53.071Z,44.02
2023-03-14T11:36:12.611Z,44.45
2023-03-14T11:37:18.151Z,44.06
2023-03-14T11:38:25.969Z,44.37
2023-03-14T11:39:38.501Z,44.07
2023-03-14T11:40:41.462Z,44.89
2023-03-14T11:41:55.011Z,44.68
2023-03-14T11:43:06.740Z,45.24
2023-03-14T11:44:21.381Z,46.00
2023-03-14T11:45:37.735Z,46.98
2023-03-14T11:46:44.960Z,46.25
2023-03-14T11:47:54.465Z,46.35
2023-03-14T11:49:41.190Z,47.44
2023-03-14T11:50:45.253Z,47.90
2023-03-14T11:51:55.260Z,47.71
2023-03-14T11:53:05.997Z,48.42
2023-03-14T11:54:29.225Z,47.91
2023-03-14T11:55:36.747Z,47.77
2023-03-14T11:56:52.131Z,47.93
2023-03-14T11:57:59.833Z,48.25
2023-03-14T11:59:18.967Z,48.77
2023-03-14T12:00:23.266Z,49.37
2023-03-14T12:01:34.836Z,50.00
2023-03-14T12:02:39.325Z,49.63
2023-03-14T12:03:53.893Z,48.72
2023-03-14T12:05:22.384Z,49.05
2023-03-14T12:06:29.500Z,48.73
2023-03-14T12:08:02.122Z,48.95
2023-03-14T12:09:06.402Z,50.00
2023-03-14T12:10:08.181Z,50.36
2023-03-14T12:11:13.011Z,51.39
2023-03-14T12:12:20.880Z,50.71
2023-03-14T12:13:33.242Z,50.00
2023-03-14T12:14:38.633Z,50.03
2023-03-14T12:15:59.494Z,49.39
2023-03-14T12:17:18.554Z,49.45
2023-03-14T12:18:27.686Z,49.85
2023-03-14T12:19:32.855Z,49.82
2023-03-14T12:20:40.247Z,49.32
2023-03-14T12:21:52.154Z,49.25
2023-03-14T12:23:06.428Z,49.97
2023-03-14T12:24:20.949Z,49.81
2023-03-14T12:25:27.162Z,49.66
2023-03-14T12:26:47.128Z,48.96
2023-03-14T12:27:57.582Z,48.94
2023-03-14T12:29:00.134Z,48.56
2023-03-14T12:30:04.072Z,48.85
2023-03-14T12:31:31.296Z,49.46
2023-03-14T12:32:33.717Z,48.10
2023-03-14T12:33:35.594Z,47.82
2023-03-14T12:34:43.517Z,48.08
2023-03-14T12:35:53.955Z,47.74
2023-03-14T12:37:05.622Z,47.05
2023-03-14T12:38:20.177Z,47.60
2023-03-14T12:39:59.634Z,47.06
2023-03-14T12:41:18.747Z,46.75
2023-03-14T12:42:27.441Z,46.78
2023-03-14T12:43:35.083Z,47.36
2023-03-14T12:44:44.867Z,47.61
2023-03-14T12:46:16.316Z,46.49
2023-03-14T12:47:17.985Z,45.65
2023-03-14T12:48:26.161Z,45.90
2023-03-14T12:49:36.633Z,44.82
2023-03-14T12:50:55.976Z,44.88
2023-03-14T12:52:02.708Z,44.91
2023-03-14T12:53:41.592Z,45.28
2023-03-14T12:54:55.098Z,45.52
2023-03-14T12:55:59.455Z,44.64
2023-03-14T12:57:30.211Z,44.82
2023-03-14T12:58:38.169Z,45.17
2023-03-14T12:59:53.280Z,45.55
2023-03-14T13:01:02.288Z,44.87
2023-03-14T13:02:09.664Z,43.61
2023-03-14T13:03:45.073Z,43.09
2023-03-14T13:04:50.599Z,43.04
2023-03-14T13:06:00.463Z,43.95
2023-03-14T13:07:04.406Z,44.86
2023-03-14T13:08:07.953Z,43.51
2023-03-14T13:09:34.154Z,43.37
2023-03-14T13:10:50.193Z,43.29
2023-03-14T13:11:54.208Z,43.60
2023-03-14T13:12:57.557Z,42.59
2023-03-14T13:14:00.291Z,43.07
2023-03-14T13:15:04.842Z,42.60
2023-03-14T13:16:06.784Z,42.76
2023-03-14T13:17:33.542Z,42.32
2023-03-14T13:18:38.593Z,41.81
2023-03-14T13:19:40.781Z,41.46
2023-03-14T13:20:59.678Z,41.96
2023-03-14T13:22:04.798Z,42.09
2023-03-14T13:23:06.485Z,42.31
2023-03-14T13:24:24.336Z,42.58
2023-03-14T13:25:30.925Z,41.80
2023-03-14T13:26:47.217Z,40.12
2023-03-14T13:27:50.060Z,39.81
2023-03-14T13:28:51.896Z,40.24
2023-03-14T13:29:53.657Z,40.72
2023-03-14T13:30:59.358Z,40.77
2023-03-14T13:32:17.907Z,41.04
2023-03-14T13:33:24.347Z,41.31
2023-03-14T13:34:30.852Z,41.78
2023-03-14T13:35:42.661Z,40.29
2023-03-14T13:36:46.572Z,40.74
2023-03-14T13:38:00.670Z,40.33
2023-03-14T13:39:19.897Z,39.30
2023-03-14T13:40:27.782Z,39.66
2023-03-14T13:41:31.889Z,40.02
2023-03-14T13:42:33.542Z,39.66
2023-03-14T13:43:40.227Z,39.33
2023-03-14T13:44:41.954Z,39.79
2023-03-14T13:45:49.555Z,40.28
2023-03-14T13:46:51.677Z,40.66
2023-03-14T13:47:53.557Z,40.32
2023-03-14T13:49:07.664Z,39.29
2023-03-14T13:50:18.741Z,40.01
2023-03-14T13:51:22.518Z,39.61
2023-03-14T13:52:29.293Z,39.29
2023-03-14T13:53:31.438Z,39.89
2023-03-14T13:54:33.159Z,40.35
2023-03-14T13:55:34.744Z,40.01
2023-03-14T13:56:36.445Z,39.77
2023-03-14T13:57:48.242Z,37.55
2023-03-14T13:58:50.941Z,37.75
2023-03-14T14:00:07.583Z,38.16
2023-03-14T14:01:15.438Z,38.49
2023-03-14T14:02:18.626Z,38.60
2023-03-14T14:03:20.585Z,38.10
2023-03-14T14:04:27.365Z,37.58
2023-03-14T14:05:30.870Z,37.91
2023-03-14T14:06:34.125Z,37.97
2023-03-14T14:07:35.936Z,37.37
2023-03-14T14:08:41.619Z,36.78
2023-03-14T14:09:48.580Z,37.35
2023-03-14T14:10:57.899Z,37.37
2023-03-14T14:12:16.513Z,37.65
2023-03-14T14:13:22.663Z,37.96
2023-03-14T14:14:30.354Z,37.79
2023-03-14T14:15:36.587Z,37.92
2023-03-14T14:16:38.452Z,38.31
2023-03-14T14:17:47.987Z,38.83
2023-03-14T14:18:49.991Z,38.37
2023-03-14T14:19:57.343Z,38.08
2023-03-14T14:20:59.681Z,36.68
2023-03-14T14:22:02.964Z,36.73
2023-03-14T14:23:07.816Z,36.68
2023-03-14T14:24:15.396Z,37.03
2023-03-14T14:25:17.655Z,36.60
2023-03-14T14:26:21.238Z,36.20
2023-03-14T14:27:40.098Z,36.92
2023-03-14T14:28:42.322Z,37.85
2023-03-14T14:29:46.653Z,37.30
2023-03-14T14:31:04.921Z,36.68
2023-03-14T14:32:09.465Z,37.34
2023-03-14T14:33:20.180Z,37.38
2023-03-14T14:34:21.935Z,37.62
2023-03-14T14:35:33.187Z,37.34
2023-03-14T14:36:43.039Z,37.19
2023-03-14T14:37:45.436Z,37.40
2023-03-14T14:39:02.060Z,37.15
2023-03-14T14:40:19.017Z,37.57
2023-03-14T14:41:21.533Z,37.82
2023-03-14T14:42:28.313Z,37.25
2023-03-14T14:43:38.089Z,36.87
2023-03-14T14:44:39.787Z,37.14
2023-03-14T14:45:43.312Z,36.19
2023-03-14T14:46:45.248Z,36.45
2023-03-14T14:48:05.102Z,36.36
2023-03-14T14:49:19.998Z,35.86
2023-03-14T14:51:00.473Z,36.45
2023-03-14T14:52:11.358Z,35.94
2023-03-14T14:53:45.497Z,36.46
2023-03-14T14:54:51.851Z,35.88
2023-03-14T14:56:05.030Z,36.46
2023-03-14T14:57:17.796Z,36.39
2023-03-14T14:58:29.663Z,35.22
2023-03-14T14:59:44.653Z,35.55
2023-03-14T15:01:12.238Z,35.29
2023-03-14T15:02:44.920Z,36.22
2023-03-14T15:03:49.654Z,36.52
2023-03-14T15:04:51.377Z,37.07
2023-03-14T15:05:56.469Z,37.45
2023-03-14T15:07:00.595Z,37.46
2023-03-14T15:08:02.451Z,37.37
2023-03-14T15:09:04.142Z,36.89
2023-03-14T15:10:11.791Z,35.90
2023-03-14T15:11:23.661Z,36.00
2023-03-14T15:12:25.770Z,36.03
2023-03-14T15:13:30.386Z,36.05
2023-03-14T15:14:32.006Z,36.55
2023-03-14T15:15:33.778Z,36.27
2023-03-14T15:16:36.445Z,36.31
2023-03-14T15:17:38.951Z,35.99
2023-03-14T15:18:41.015Z,36.30
2023-03-14T15:19:42.684Z,36.52
2023-03-14T15:20:45.792Z,36.57
2023-03-14T15:21:50.422Z,37.13
2023-03-14T15:22:52.312Z,36.82
2023-03-14T15:23:54.079Z,36.63
2023-03-14T15:24:55.671Z,36.78
2023-03-14T15:25:57.399Z,37.04
2023-03-14T15:26:59.093Z,36.75
2023-03-14T15:28:00.755Z,37.42
2023-03-14T15:29:02.630Z,36.25
2023-03-14T15:30:04.384Z,36.76
2023-03-14T15:31:06.115Z,37.01
2023-03-14T15:32:14.602Z,36.87
2023-03-14T15:33:16.447Z,36.69
2023-03-14T15:34:18.189Z,37.60
2023-03-14T15:35:19.908Z,37.81
2023-03-14T15:36:33.079Z,38.05
2023-03-14T15:37:35.603Z,38.04
2023-03-14T15:38:40.418Z,38.06
2023-03-14T15:39:43.518Z,38.16
2023-03-14T15:40:45.091Z,38.61
2023-03-14T15:41:46.761Z,38.65
2023-03-14T15:42:48.473Z,38.44
2023-03-14T15:43:50.526Z,38.29
2023-03-14T15:44:52.122Z,38.10
2023-03-14T15:45:53.892Z,38.53
2023-03-14T15:46:55.672Z,38.35
2023-03-14T15:47:57.384Z,38.38
2023-03-14T15:48:58.989Z,38.62
2023-03-14T15:50:00.658Z,39.39
2023-03-14T15:51:02.327Z,38.81
2023-03-14T15:52:03.935Z,39.48
2023-03-14T15:53:05.577Z,39.75
2023-03-14T15:54:07.201Z,39.83
2023-03-14T15:55:09.232Z,39.71
2023-03-14T15:56:16.954Z,40.94
2023-03-14T15:57:18.851Z,40.99
2023-03-14T15:58:22.210Z,41.78
2023-03-14T15:59:25.231Z,42.51
2023-03-14T16:00:32.715Z,43.57
2023-03-14T16:01:34.420Z,44.07
2023-03-14T16:02:41.034Z,45.50
2023-03-14T16:03:46.458Z,45.73
2023-03-14T16:04:48.210Z,45.51
2023-03-14T16:05:49.825Z,46.50
2023-03-14T16:06:51.612Z,46.67
2023-03-14T16:07:53.123Z,46.63
2023-03-14T16:08:57.489Z,46.13
2023-03-14T16:09:59.086Z,46.75
2023-03-14T16:11:03.046Z,46.92
2023-03-14T16:12:10.166Z,46.57
2023-03-14T16:13:12.780Z,47.00
2023-03-14T16:14:14.689Z,47.30
2023-03-14T16:15:16.381Z,47.30
2023-03-14T16:16:18.314Z,47.15
2023-03-14T16:17:19.946Z,47.04
2023-03-14T16:18:22.425Z,48.07
2023-03-14T16:19:28.578Z,47.88
2023-03-14T16:20:38.644Z,47.35
2023-03-14T16:21:47.428Z,47.45
2023-03-14T16:22:49.404Z,47.27
2023-03-14T16:23:51.534Z,47.50
2023-03-14T16:24:53.283Z,48.27
2023-03-14T16:25:55.327Z,48.17
2023-03-14T16:26:56.941Z,47.85
2023-03-14T16:28:10.316Z,47.88
2023-03-14T16:29:17.012Z,47.46
2023-03-14T16:30:18.870Z,47.64
2023-03-14T16:31:25.175Z,47.80
2023-03-14T16:32:27.854Z,46.71
2023-03-14T16:33:30.518Z,46.27
2023-03-14T16:34:32.629Z,46.64
2023-03-14T16:35:34.341Z,46.75
2023-03-14T16:36:38.622Z,46.30
2023-03-14T16:37:40.236Z,45.74
2023-03-14T16:38:44.298Z,45.57
2023-03-14T16:40:10.259Z,46.50
2023-03-14T16:41:15.164Z,47.38
2023-03-14T16:42:19.985Z,46.86
2023-03-14T16:43:21.652Z,46.12
2023-03-14T16:44:23.356Z,46.10
2023-03-14T16:45:25.118Z,46.11
2023-03-14T16:46:28.478Z,45.82
2023-03-14T16:47:31.197Z,46.18
2023-03-14T16:48:35.161Z,45.67
2023-03-14T16:49:36.886Z,45.73
2023-03-14T16:50:40.669Z,45.48
2023-03-14T16:51:43.197Z,45.71
2023-03-14T16:52:47.040Z,45.35
2023-03-14T16:53:48.753Z,45.79
2023-03-14T16:54:50.286Z,45.51
2023-03-14T16:55:52.227Z,44.88
2023-03-14T16:56:54.486Z,45.29
2023-03-14T16:57:56.270Z,45.16
2023-03-14T16:58:57.809Z,45.32
2023-03-14T17:00:01.613Z,47.27
2023-03-14T17:01:14.015Z,46.06
2023-03-14T17:02:15.744Z,45.77
2023-03-14T17:03:18.190Z,45.52
2023-03-14T17:04:19.985Z,45.62
2023-03-14T17:05:22.506Z,45.28
2023-03-14T17:06:28.849Z,45.74
2023-03-14T17:07:30.633Z,45.72
2023-03-14T17:08:34.976Z,45.04
2023-03-14T17:09:37.546Z,45.27
2023-03-14T17:10:39.934Z,44.97
2023-03-14T17:11:43.999Z,44.74
2023-03-14T17:12:45.928Z,44.87
2023-03-14T17:13:50.626Z,44.78
2023-03-14T17:14:52.555Z,44.91
2023-03-14T17:15:56.638Z,45.10
2023-03-14T17:16:58.419Z,45.62
2023-03-14T17:18:00.111Z,45.55
2023-03-14T17:19:03.990Z,45.44
2023-03-14T17:20:08.395Z,45.28
2023-03-14T17:21:10.330Z,45.02
2023-03-14T17:22:23.876Z,45.54
2023-03-14T17:23:30.512Z,45.48
2023-03-14T17:24:32.289Z,45.31
2023-03-14T17:25:33.842Z,45.63
2023-03-14T17:26:35.565Z,45.54
2023-03-14T17:27:37.226Z,44.75
2023-03-14T17:28:39.875Z,45.11
2023-03-14T17:29:41.614Z,45.04
2023-03-14T17:30:43.198Z,45.42
2023-03-14T17:31:47.155Z,45.22
2023-03-14T17:32:49.296Z,45.34
2023-03-14T17:33:54.986Z,45.45
2023-03-14T17:34:56.907Z,46.00
2023-03-14T17:35:58.626Z,46.20
2023-03-14T17:37:00.318Z,46.11
2023-03-14T17:38:01.994Z,46.15
2023-03-14T17:39:03.795Z,46.29
2023-03-14T17:40:05.963Z,46.28
2023-03-14T17:41:10.274Z,46.40
2023-03-14T17:42:12.066Z,46.56
2023-03-14T17:43:13.806Z,46.81
2023-03-14T17:44:15.411Z,46.92
2023-03-14T17:45:17.334Z,46.73
2023-03-14T17:46:21.286Z,46.63
2023-03-14T17:47:25.369Z,47.08
2023-03-14T17:48:29.388Z,46.69
2023-03-14T17:49:33.374Z,46.59
2023-03-14T17:50:37.956Z,46.33
2023-03-14T17:51:42.105Z,45.59
2023-03-14T17:52:43.900Z,45.52
2023-03-14T17:53:45.534Z,45.79
2023-03-14T17:54:47.254Z,45.95
2023-03-14T17:55:51.207Z,45.82
2023-03-14T17:56:57.190Z,45.91
2023-03-14T17:57:59.023Z,45.53
2023-03-14T17:59:01.193Z,46.10
2023-03-14T18:00:02.961Z,46.26
2023-03-14T18:01:17.635Z,45.26
2023-03-14T18:02:23.118Z,44.72
2023-03-14T18:03:25.373Z,45.17
2023-03-14T18:04:27.273Z,45.56
2023-03-14T18:05:31.507Z,45.35
2023-03-14T18:06:33.289Z,44.61
2023-03-14T18:07:36.076Z,44.61
2023-03-14T18:08:40.214Z,44.08
2023-03-14T18:09:42.307Z,44.23
2023-03-14T18:10:44.038Z,44.66
2023-03-14T18:11:46.209Z,44.67
2023-03-14T18:12:47.915Z,44.45
2023-03-14T18:13:49.474Z,44.31
2023-03-14T18:14:51.171Z,44.57
2023-03-14T18:15:52.998Z,44.03
2023-03-14T18:16:55.056Z,43.75
2023-03-14T18:17:56.960Z,43.98
2023-03-14T18:19:01.929Z,43.31
2023-03-14T18:20:05.277Z,43.34
2023-03-14T18:21:09.858Z,43.45
2023-03-14T18:22:16.028Z,43.11
2023-03-14T18:23:17.654Z,43.17
2023-03-14T18:24:20.835Z,42.94
2023-03-14T18:25:22.674Z,43.09
2023-03-14T18:26:27.444Z,43.42
2023-03-14T18:27:29.228Z,44.44
2023-03-14T18:28:31.025Z,44.42
2023-03-14T18:29:32.711Z,45.27
2023-03-14T18:30:34.418Z,45.60
2023-03-14T18:31:36.223Z,46.76
2023-03-14T18:32:43.056Z,47.39
2023-03-14T18:33:47.972Z,47.70
2023-03-14T18:34:54.364Z,47.89
2023-03-14T18:35:56.116Z,47.94
2023-03-14T18:36:57.719Z,48.09
2023-03-14T18:37:59.390Z,48.12
2023-03-14T18:39:01.983Z,49.08
2023-03-14T18:40:06.444Z,49.09
2023-03-14T18:41:12.826Z,48.88
2023-03-14T18:42:14.614Z,49.03
2023-03-14T18:43:16.265Z,49.22
2023-03-14T18:44:17.981Z,49.26
2023-03-14T18:45:19.733Z,49.70
2023-03-14T18:46:22.430Z,49.60
2023-03-14T18:47:26.963Z,49.66
2023-03-14T18:48:29.981Z,49.18
2023-03-14T18:49:34.959Z,48.91
2023-03-14T18:50:37.686Z,49.19
2023-03-14T18:51:40.454Z,49.61
2023-03-14T18:52:42.190Z,49.60
2023-03-14T18:53:46.554Z,49.55
2023-03-14T18:54:48.973Z,49.60
2023-03-14T18:55:52.174Z,50.34
2023-03-14T18:56:56.432Z,50.67
2023-03-14T18:57:58.101Z,51.16
2023-03-14T18:58:59.812Z,51.13
2023-03-14T19:00:01.377Z,52.02
2023-03-14T19:01:04.646Z,51.44
2023-03-14T19:02:06.771Z,51.17
2023-03-14T19:03:08.475Z,51.61
2023-03-14T19:04:12.239Z,51.16
2023-03-14T19:05:16.026Z,51.77
2023-03-14T19:06:17.982Z,51.22
2023-03-14T19:07:23.649Z,51.03
2023-03-14T19:08:27.511Z,51.11
2023-03-14T19:09:29.306Z,51.17
2023-03-14T19:10:33.391Z,51.20
2023-03-14T19:11:35.044Z,51.36
2023-03-14T19:12:36.693Z,50.87
2023-03-14T19:13:40.220Z,50.89
2023-03-14T19:14:42.133Z,50.94
2023-03-14T19:15:44.581Z,50.71
2023-03-14T19:16:47.150Z,50.73
2023-03-14T19:17:48.934Z,50.78
2023-03-14T19:18:52.208Z,50.82
2023-03-14T19:19:54.042Z,50.58
2023-03-14T19:21:05.057Z,50.05
2023-03-14T19:22:08.970Z,50.34
2023-03-14T19:23:14.210Z,50.47
2023-03-14T19:24:20.474Z,50.43
2023-03-14T19:25:22.318Z,50.21
2023-03-14T19:26:24.625Z,50.15
2023-03-14T19:27:26.426Z,50.24
2023-03-14T19:28:28.594Z,50.40
2023-03-14T19:29:36.989Z,50.33
2023-03-14T19:30:38.795Z,49.97
2023-03-14T19:31:40.585Z,49.73
2023-03-14T19:32:42.484Z,49.66
2023-03-14T19:33:46.983Z,49.60
2023-03-14T19:34:48.827Z,49.72
2023-03-14T19:35:50.745Z,50.16
2023-03-14T19:36:52.532Z,50.46
2023-03-14T19:37:54.253Z,49.84
2023-03-14T19:38:56.250Z,49.73
2023-03-14T19:39:57.984Z,49.83
2023-03-14T19:40:59.712Z,49.66
2023-03-14T19:42:01.478Z,49.82
2023-03-14T19:43:03.177Z,50.27
2023-03-14T19:44:08.120Z,49.95
2023-03-14T19:45:10.478Z,49.53
2023-03-14T19:46:12.398Z,49.47
2023-03-14T19:47:13.934Z,49.65
2023-03-14T19:48:18.394Z,49.74
2023-03-14T19:49:22.458Z,49.69
2023-03-14T19:50:25.179Z,49.97
2023-03-14T19:51:26.904Z,49.53
2023-03-14T19:52:31.776Z,49.80
2023-03-14T19:53:35.276Z,49.29
2023-03-14T19:54:37.090Z,49.24
2023-03-14T19:55:38.671Z,49.48
2023-03-14T19:56:41.580Z,49.33
2023-03-14T19:57:44.475Z,49.49
2023-03-14T19:58:46.187Z,49.28
2023-03-14T19:59:47.871Z,49.66
2023-03-14T20:00:49.867Z,49.63
2023-03-14T20:01:52.607Z,49.52
2023-03-14T20:02:54.542Z,49.89
2023-03-14T20:03:56.271Z,49.83
2023-03-14T20:04:57.780Z,49.91
2023-03-14T20:06:03.428Z,49.87
2023-03-14T20:07:05.110Z,49.75
2023-03-14T20:08:06.886Z,50.13
2023-03-14T20:09:11.438Z,49.96
2023-03-14T20:10:18.065Z,49.49
2023-03-14T20:11:20.094Z,49.33
2023-03-14T20:12:21.874Z,49.81
2023-03-14T20:13:23.554Z,50.00
2023-03-14T20:14:25.406Z,49.88
2023-03-14T20:15:29.441Z,49.94
2023-03-14T20:16:35.858Z,50.21
2023-03-14T20:17:38.625Z,50.21
2023-03-14T20:18:40.376Z,50.64
2023-03-14T20:19:44.414Z,51.61
2023-03-14T20:20:46.031Z,51.17
2023-03-14T20:21:51.109Z,51.11
2023-03-14T20:22:52.787Z,51.12
2023-03-14T20:23:54.566Z,50.72
2023-03-14T20:24:59.097Z,49.80
2023-03-14T20:26:04.718Z,49.86
2023-03-14T20:27:06.576Z,50.00
2023-03-14T20:28:08.606Z,50.29
2023-03-14T20:29:10.513Z,50.22
2023-03-14T20:30:14.431Z,50.35
2023-03-14T20:31:16.302Z,49.65
2023-03-14T20:32:18.542Z,49.60
2023-03-14T20:33:20.869Z,49.98
2023-03-14T20:34:22.757Z,49.99
2023-03-14T20:35:24.344Z,49.97
2023-03-14T20:36:26.072Z,49.31
2023-03-14T20:37:28.479Z,48.79
2023-03-14T20:38:31.186Z,48.08
2023-03-14T20:39:35.995Z,47.86
2023-03-14T20:40:40.057Z,47.88
2023-03-14T20:41:42.369Z,48.14
2023-03-14T20:42:44.094Z,48.15
2023-03-14T20:43:45.646Z,48.27
2023-03-14T20:44:47.776Z,48.41
2023-03-14T20:45:59.769Z,48.74
2023-03-14T20:47:01.527Z,49.07
2023-03-14T20:48:03.312Z,49.18
2023-03-14T20:49:05.197Z,49.44
2023-03-14T20:50:08.086Z,49.85
2023-03-14T20:51:11.414Z,49.44
2023-03-14T20:52:15.726Z,49.74
2023-03-14T20:53:18.458Z,49.74
2023-03-14T20:54:20.843Z,49.72
2023-03-14T20:55:22.557Z,49.80
2023-03-14T20:56:24.338Z,49.46
2023-03-14T20:57:26.072Z,49.17
2023-03-14T20:58:27.742Z,48.98
2023-03-14T20:59:29.324Z,49.59
2023-03-14T21:00:31.080Z,49.76
2023-03-14T21:01:33.128Z,49.83
2023-03-14T21:02:35.100Z,49.90
2023-03-14T21:03:36.841Z,49.88
2023-03-14T21:04:38.685Z,50.13
2023-03-14T21:05:46.767Z,49.90
2023-03-14T21:06:48.519Z,50.13
2023-03-14T21:07:50.313Z,50.29
2023-03-14T21:08:51.965Z,50.22
2023-03-14T21:09:53.500Z,50.97
2023-03-14T21:10:56.044Z,50.65
2023-03-14T21:11:57.749Z,50.68
2023-03-14T21:12:59.331Z,50.36
2023-03-14T21:14:01.008Z,50.77
2023-03-14T21:15:02.552Z,51.16
2023-03-14T21:16:04.690Z,50.51
2023-03-14T21:17:06.882Z,50.68
2023-03-14T21:18:11.673Z,50.46
2023-03-14T21:19:16.401Z,49.81
2023-03-14T21:20:18.169Z,49.21
2023-03-14T21:21:19.756Z,49.32
2023-03-14T21:22:21.416Z,49.33
2023-03-14T21:23:26.470Z,48.86
2023-03-14T21:24:29.234Z,48.96
2023-03-14T21:25:31.580Z,48.86
2023-03-14T21:26:35.828Z,48.30
2023-03-14T21:27:41.428Z,48.68
2023-03-14T21:28:43.097Z,48.57
2023-03-14T21:29:44.616Z,48.53
2023-03-14T21:30:48.879Z,48.24
2023-03-14T21:31:52.828Z,47.69
2023-03-14T21:32:54.516Z,47.71
2023-03-14T21:33:56.490Z,47.74
2023-03-14T21:34:58.360Z,47.58
2023-03-14T21:36:00.155Z,47.78
2023-03-14T21:37:01.730Z,48.07
2023-03-14T21:38:03.528Z,47.63
2023-03-14T21:39:10.453Z,47.34
2023-03-14T21:40:12.947Z,47.26
2023-03-14T21:41:14.599Z,46.71
2023-03-14T21:42:18.788Z,46.55
2023-03-14T21:43:21.737Z,46.05
2023-03-14T21:44:23.608Z,46.04
2023-03-14T21:45:26.653Z,46.08
2023-03-14T21:46:28.952Z,45.62
2023-03-14T21:47:30.707Z,45.72
2023-03-14T21:48:32.380Z,45.20
2023-03-14T21:49:38.070Z,45.43
2023-03-14T21:50:40.337Z,45.64
2023-03-14T21:51:45.889Z,45.48
2023-03-14T21:52:47.609Z,45.55
2023-03-14T21:53:51.642Z,45.48
2023-03-14T21:54:53.592Z,45.42
2023-03-14T21:55:58.781Z,45.11
2023-03-14T21:57:01.951Z,44.96
2023-03-14T21:58:03.592Z,45.04
2023-03-14T21:59:05.485Z,44.97
2023-03-14T22:00:08.146Z,45.36
2023-03-14T22:01:10.752Z,45.45
2023-03-14T22:02:22.312Z,44.97
2023-03-14T22:03:24.389Z,44.62
2023-03-14T22:04:26.452Z,44.62
2023-03-14T22:05:28.204Z,44.71
2023-03-14T22:06:29.865Z,44.51
2023-03-14T22:07:33.793Z,44.67
2023-03-14T22:08:35.451Z,44.50
2023-03-14T22:09:40.078Z,44.62
2023-03-14T22:10:52.333Z,44.47
2023-03-14T22:11:56.253Z,44.62
2023-03-14T22:12:57.929Z,44.50
2023-03-14T22:13:59.693Z,44.97
2023-03-14T22:15:01.225Z,44.69
2023-03-14T22:16:02.974Z,44.83
2023-03-14T22:17:05.283Z,44.77
2023-03-14T22:18:06.989Z,44.51
2023-03-14T22:19:08.527Z,44.82
2023-03-14T22:20:13.730Z,44.83
2023-03-14T22:21:15.455Z,44.42
2023-03-14T22:22:17.128Z,44.64
2023-03-14T22:23:18.981Z,44.86
2023-03-14T22:24:20.606Z,44.85
2023-03-14T22:25:22.330Z,44.64
2023-03-14T22:26:23.863Z,44.80
2023-03-14T22:27:25.491Z,44.69
2023-03-14T22:28:27.139Z,44.76
2023-03-14T22:29:28.770Z,44.78
2023-03-14T22:30:30.656Z,44.66
2023-03-14T22:31:32.757Z,44.46
2023-03-14T22:32:34.575Z,44.57
2023-03-14T22:33:36.147Z,44.87
2023-03-14T22:34:40.709Z,44.37
2023-03-14T22:35:42.382Z,44.58
2023-03-14T22:36:43.887Z,44.43
2023-03-14T22:37:48.086Z,44.11
2023-03-14T22:38:49.708Z,45.40
2023-03-14T22:39:51.363Z,46.96
2023-03-14T22:40:53.128Z,47.69
2023-03-14T22:41:55.825Z,47.90
2023-03-14T22:42:57.600Z,48.77
2023-03-14T22:43:59.641Z,49.94
2023-03-14T22:45:01.370Z,50.24
2023-03-14T22:46:04.572Z,51.28
2023-03-14T22:47:06.308Z,51.84
2023-03-14T22:48:07.998Z,52.57
2023-03-14T22:49:09.560Z,52.81
2023-03-14T22:50:13.988Z,53.36
2023-03-14T22:51:19.070Z,53.96
2023-03-14T22:52:20.771Z,53.63
2023-03-14T22:53:22.369Z,53.94
2023-03-14T22:54:26.480Z,54.37
2023-03-14T22:55:28.176Z,54.24
2023-03-14T22:56:30.174Z,54.35
2023-03-14T22:57:31.708Z,54.39
2023-03-14T22:58:34.181Z,54.60
2023-03-14T22:59:35.775Z,54.69
2023-03-14T23:00:38.174Z,54.55
2023-03-14T23:01:41.909Z,54.90
2023-03-14T23:02:43.566Z,54.91
2023-03-14T23:03:45.509Z,54.97
2023-03-14T23:04:47.177Z,56.02
2023-03-14T23:05:48.856Z,55.56
2023-03-14T23:06:50.388Z,55.36
2023-03-14T23:07:52.600Z,54.97
2023-03-14T23:08:54.344Z,54.97
2023-03-14T23:09:55.924Z,55.11
2023-03-14T23:11:06.072Z,54.95
2023-03-14T23:12:10.045Z,55.23
2023-03-14T23:13:15.078Z,55.47
2023-03-14T23:14:16.756Z,55.10
2023-03-14T23:15:18.583Z,55.12
2023-03-14T23:16:34.141Z,55.28
2023-03-14T23:17:43.274Z,54.84
2023-03-14T23:18:45.028Z,55.17
2023-03-14T23:19:49.091Z,55.11
2023-03-14T23:20:50.620Z,55.50
2023-03-14T23:21:53.744Z,55.31
2023-03-14T23:22:55.386Z,55.08
2023-03-14T23:23:59.644Z,55.05
2023-03-14T23:25:01.819Z,54.98
2023-03-14T23:26:05.750Z,54.94
2023-03-14T23:27:07.394Z,54.89
2023-03-14T23:28:09.107Z,54.89
2023-03-14T23:29:13.831Z,55.02
2023-03-14T23:30:17.130Z,55.17
2023-03-14T23:31:18.826Z,54.94
2023-03-14T23:32:20.550Z,55.20
2023-03-14T23:33:22.730Z,54.88
2023-03-14T23:34:25.288Z,55.07
2023-03-14T23:35:26.949Z,55.44
2023-03-14T23:36:30.730Z,55.18